createdAt,value
2019-05-26T00:00:34.812Z,7.47
2019-05-26T00:05:40.761Z,10.78
2019-05-26T00:10:46.526Z,6.42
2019-05-26T00:15:52.604Z,5.60
2019-05-26T00:20:58.779Z,8.38
2019-05-26T00:26:04.749Z,9.03
2019-05-26T00:31:11.842Z,6.80
2019-05-26T00:36:17.916Z,8.93
2019-05-26T00:41:23.887Z,11.08
2019-05-26T00:46:29.755Z,11.90
2019-05-26T00:51:35.629Z,6.25
2019-05-26T00:56:41.496Z,6.35
2019-05-26T01:01:47.465Z,7.65
2019-05-26T01:06:56.711Z,5.00
2019-05-26T01:17:07.562Z,4.17
2019-05-26T01:22:13.599Z,4.80
2019-05-26T01:27:19.649Z,4.17
2019-05-26T01:32:25.562Z,3.87
2019-05-26T01:37:31.748Z,3.02
2019-05-26T01:42:37.789Z,6.12
2019-05-26T01:47:43.724Z,5.15
2019-05-26T01:52:49.832Z,4.50
2019-05-26T01:57:55.704Z,4.12
2019-05-26T02:03:01.672Z,3.72
2019-05-26T02:08:12.010Z,3.90
2019-05-26T02:13:18.124Z,6.25
2019-05-26T02:18:24.296Z,5.85
2019-05-26T02:23:30.170Z,5.10
2019-05-26T02:28:36.032Z,5.60
2019-05-26T02:33:41.802Z,5.55
2019-05-26T02:39:00.944Z,9.13
2019-05-26T02:43:55.304Z,11.40
2019-05-26T02:49:01.467Z,6.78
2019-05-26T02:54:07.553Z,6.22
2019-05-26T02:59:13.524Z,7.90
2019-05-26T03:04:19.571Z,8.28
2019-05-26T03:09:26.976Z,8.25
2019-05-26T03:14:35.710Z,8.18
2019-05-26T03:19:43.093Z,6.70
2019-05-26T03:24:54.494Z,7.75
2019-05-26T03:30:00.489Z,9.90
2019-05-26T03:35:10.961Z,7.70
2019-05-26T03:40:17.139Z,11.75
2019-05-26T03:45:42.254Z,9.20
2019-05-26T03:50:48.126Z,7.58
2019-05-26T03:55:53.995Z,8.08
2019-05-26T04:00:59.864Z,9.65
2019-05-26T04:06:06.255Z,10.72
2019-05-26T04:11:12.503Z,10.00
2019-05-26T04:16:18.391Z,9.38
2019-05-26T04:21:24.273Z,9.30
2019-05-26T04:26:30.226Z,7.47
2019-05-26T04:31:36.502Z,11.68
2019-05-26T04:36:42.590Z,9.50
2019-05-26T04:41:48.778Z,6.42
2019-05-26T04:46:54.840Z,9.03
2019-05-26T04:52:01.112Z,8.78
2019-05-26T04:57:07.187Z,9.43
2019-05-26T05:02:13.253Z,8.10
2019-05-26T05:07:19.390Z,9.10
2019-05-26T05:12:25.512Z,8.30
2019-05-26T05:17:31.368Z,6.62
2019-05-26T05:22:37.443Z,7.83
2019-05-26T05:27:43.439Z,10.03
2019-05-26T05:32:49.692Z,11.33
2019-05-26T05:37:55.673Z,10.32
2019-05-26T05:43:02.184Z,7.90
2019-05-26T05:48:08.551Z,9.83
2019-05-26T05:53:14.561Z,11.22
2019-05-26T05:58:22.007Z,9.18
2019-05-26T06:03:27.974Z,11.00
2019-05-26T06:08:33.945Z,10.90
2019-05-26T06:13:40.849Z,11.93
2019-05-26T06:18:47.330Z,11.68
2019-05-26T06:23:53.293Z,8.30
2019-05-26T06:28:59.272Z,9.03
2019-05-26T06:34:05.599Z,9.53
2019-05-26T06:39:11.512Z,9.40
2019-05-26T06:44:18.032Z,8.90
2019-05-26T06:49:24.443Z,8.28
2019-05-26T06:54:30.652Z,9.18
2019-05-26T06:59:36.625Z,8.58
2019-05-26T07:04:43.110Z,8.13
2019-05-26T07:09:49.443Z,10.65
2019-05-26T07:14:56.490Z,9.13
2019-05-26T07:20:02.791Z,9.00
2019-05-26T07:25:09.556Z,12.75
2019-05-26T07:30:16.809Z,10.93
2019-05-26T07:35:22.968Z,10.00
2019-05-26T07:40:29.412Z,8.33
2019-05-26T07:45:35.313Z,11.70
2019-05-26T07:50:41.258Z,12.78
2019-05-26T07:55:47.422Z,9.63
2019-05-26T08:00:53.501Z,9.18
2019-05-26T08:05:59.471Z,11.08
2019-05-26T08:11:05.968Z,10.35
2019-05-26T08:16:11.982Z,9.43
2019-05-26T08:21:18.101Z,12.13
2019-05-26T08:26:24.308Z,6.95
2019-05-26T08:31:30.517Z,6.47
2019-05-26T08:36:36.927Z,5.58
2019-05-26T08:41:43.005Z,7.40
2019-05-26T08:46:49.111Z,5.80
2019-05-26T08:51:55.463Z,5.62
2019-05-26T08:57:01.531Z,7.85
2019-05-26T09:02:07.603Z,5.35
2019-05-26T09:07:13.692Z,9.88
2019-05-26T09:12:19.970Z,6.47
2019-05-26T09:17:26.053Z,4.17
2019-05-26T09:22:32.098Z,5.50
2019-05-26T09:27:38.351Z,7.83
2019-05-26T09:32:44.382Z,3.62
2019-05-26T09:37:51.349Z,2.87
2019-05-26T09:42:57.416Z,5.90
2019-05-26T09:48:03.512Z,6.62
2019-05-26T09:53:09.466Z,8.05
2019-05-26T09:58:15.437Z,7.55
2019-05-26T10:03:21.411Z,3.37
2019-05-26T10:08:27.480Z,4.05
2019-05-26T10:13:33.652Z,2.98
2019-05-26T10:18:40.509Z,6.43
2019-05-26T10:23:46.742Z,6.80
2019-05-26T10:28:52.791Z,4.35
2019-05-26T10:33:58.822Z,6.67
2019-05-26T10:39:06.892Z,7.22
2019-05-26T10:44:12.957Z,4.37
2019-05-26T10:49:19.195Z,5.90
2019-05-26T10:54:25.424Z,4.40
2019-05-26T10:59:31.591Z,5.80
2019-05-26T11:04:37.659Z,2.37
2019-05-26T11:09:43.845Z,3.58
2019-05-26T11:14:49.852Z,8.10
2019-05-26T11:19:55.887Z,5.67
2019-05-26T11:25:02.337Z,4.03
2019-05-26T11:30:11.743Z,6.08
2019-05-26T11:35:19.328Z,3.08
2019-05-26T11:40:25.806Z,3.58
2019-05-26T11:45:32.417Z,4.42
2019-05-26T11:50:38.486Z,3.75
2019-05-26T11:55:45.255Z,2.72
2019-05-26T12:00:51.128Z,3.95
2019-05-26T12:05:57.091Z,5.83
2019-05-26T12:11:03.402Z,3.15
2019-05-26T12:16:09.465Z,5.15
2019-05-26T12:21:15.430Z,7.12
2019-05-26T12:26:21.595Z,13.65
2019-05-26T12:31:27.567Z,4.12
2019-05-26T12:36:38.907Z,9.70
2019-05-26T12:41:42.581Z,4.50
2019-05-26T12:46:48.649Z,5.80
2019-05-26T12:51:55.068Z,7.28
2019-05-26T12:57:01.311Z,6.40
2019-05-26T13:02:07.608Z,5.60
2019-05-26T13:07:13.460Z,4.97
2019-05-26T13:12:19.686Z,2.60
2019-05-26T13:17:25.657Z,6.65
2019-05-26T13:22:31.690Z,7.10
2019-05-26T13:27:37.546Z,39.38
2019-05-26T13:32:43.513Z,4.70
2019-05-26T13:37:49.623Z,8.43
2019-05-26T13:42:55.686Z,4.72
2019-05-26T13:48:02.040Z,6.20
2019-05-26T13:53:08.134Z,3.00
2019-05-26T13:58:14.282Z,2.55
2019-05-26T14:03:20.259Z,3.75
2019-05-26T14:08:26.255Z,8.48
2019-05-26T14:13:32.226Z,6.45
2019-05-26T14:18:38.657Z,9.70
2019-05-26T14:23:44.755Z,7.53
2019-05-26T14:28:50.826Z,4.15
2019-05-26T14:33:56.701Z,5.47
2019-05-26T14:39:02.693Z,2.50
2019-05-26T14:44:08.941Z,4.28
2019-05-26T14:49:15.025Z,5.65
2019-05-26T14:54:21.089Z,4.20
2019-05-26T14:59:27.298Z,3.72
2019-05-26T15:04:33.339Z,5.62
2019-05-26T15:09:39.310Z,5.17
2019-05-26T15:14:45.382Z,4.80
2019-05-26T15:19:51.466Z,6.87
2019-05-26T15:24:57.428Z,3.15
2019-05-26T15:30:04.734Z,3.98
2019-05-26T15:35:12.113Z,2.52
2019-05-26T15:40:19.249Z,3.98
2019-05-26T15:45:25.347Z,2.53
2019-05-26T15:50:31.589Z,5.95
2019-05-26T15:55:39.866Z,3.55
2019-05-26T16:00:53.417Z,3.58
2019-05-26T16:06:03.419Z,5.37
2019-05-26T16:11:09.864Z,4.30
2019-05-26T16:16:16.192Z,2.55
2019-05-26T16:21:27.968Z,3.33
2019-05-26T16:26:31.093Z,11.12
2019-05-26T16:31:37.065Z,4.05
2019-05-26T16:36:43.459Z,5.25
2019-05-26T16:41:49.646Z,5.83
2019-05-26T16:46:57.070Z,6.00
2019-05-26T16:52:03.304Z,3.47
2019-05-26T16:57:09.689Z,16.67
2019-05-26T17:02:17.631Z,10.95
2019-05-26T17:12:34.365Z,7.05
2019-05-26T17:17:40.338Z,7.50
2019-05-26T17:22:46.867Z,11.10
2019-05-26T17:27:52.749Z,18.62
2019-05-26T17:32:58.855Z,14.68
2019-05-26T17:38:05.257Z,6.62
2019-05-26T17:43:11.310Z,12.55
2019-05-26T17:48:17.345Z,3.42
2019-05-26T17:53:23.251Z,22.15
2019-05-26T17:58:29.194Z,120.00
2019-05-26T18:03:35.707Z,82.02
2019-05-26T18:08:41.757Z,27.62
2019-05-26T18:13:47.873Z,15.03
2019-05-26T18:18:53.928Z,67.37
2019-05-26T18:24:00.042Z,56.05
2019-05-26T18:29:06.373Z,19.80
2019-05-26T18:34:12.453Z,54.73
2019-05-26T18:39:18.423Z,34.98
2019-05-26T18:44:24.408Z,19.37
2019-05-26T18:49:30.900Z,42.33
2019-05-26T18:54:36.961Z,13.93
2019-05-26T18:59:43.022Z,42.78
2019-05-26T19:04:48.998Z,250.53
2019-05-26T19:09:54.881Z,365.60
2019-05-26T19:15:00.728Z,471.80
2019-05-26T19:20:16.021Z,255.15
2019-05-26T19:25:17.895Z,84.85
2019-05-26T19:30:23.961Z,57.48
2019-05-26T19:35:29.944Z,30.37
2019-05-26T19:40:36.013Z,29.82
2019-05-26T19:45:41.979Z,20.68
2019-05-26T19:50:47.891Z,23.05
2019-05-26T19:55:53.924Z,19.25
2019-05-26T20:01:00.139Z,82.50
2019-05-26T20:06:06.656Z,15.08
2019-05-26T20:11:12.760Z,13.28
2019-05-26T20:16:18.824Z,17.27
2019-05-26T20:21:24.801Z,16.07
2019-05-26T20:26:30.772Z,10.82
2019-05-26T20:31:36.738Z,13.85
2019-05-26T20:36:42.718Z,10.45
2019-05-26T20:41:48.683Z,11.05
2019-05-26T20:46:54.657Z,19.27
2019-05-26T20:52:00.619Z,20.45
2019-05-26T20:57:06.596Z,35.52
2019-05-26T21:02:12.563Z,8.98
2019-05-26T21:07:18.982Z,6.92
2019-05-26T21:12:24.811Z,9.78
2019-05-26T21:17:30.902Z,6.85
2019-05-26T21:22:36.865Z,5.70
2019-05-26T21:27:42.723Z,5.30
2019-05-26T21:32:48.700Z,5.17
2019-05-26T21:37:54.871Z,5.50
2019-05-26T21:43:00.637Z,4.58
2019-05-26T21:48:06.811Z,9.28
2019-05-26T21:53:12.697Z,6.87
2019-05-26T21:58:18.555Z,5.87
2019-05-26T22:03:24.519Z,5.22
2019-05-26T22:08:30.321Z,5.97
2019-05-26T22:13:36.668Z,4.87
2019-05-26T22:18:42.537Z,5.75
2019-05-26T22:23:48.405Z,5.33
2019-05-26T22:28:54.380Z,6.15
2019-05-26T22:34:00.175Z,5.87
2019-05-26T22:39:07.780Z,6.55
2019-05-26T22:44:13.722Z,6.72
2019-05-26T22:49:19.594Z,6.85
2019-05-26T22:54:25.455Z,5.20
2019-05-26T22:59:31.326Z,7.00
2019-05-26T23:04:37.230Z,6.03
2019-05-26T23:09:42.962Z,7.12
2019-05-26T23:14:48.829Z,5.28
2019-05-26T23:19:54.701Z,5.45
2019-05-26T23:25:00.566Z,5.45
2019-05-26T23:30:08.690Z,6.00
2019-05-26T23:35:15.274Z,5.25
2019-05-26T23:40:21.147Z,6.33
2019-05-26T23:45:27.117Z,8.98
2019-05-26T23:50:32.986Z,5.00
2019-05-26T23:55:38.897Z,4.80
